Flag for USA

Past Weather in 37°53'55.7"N, 122°32'13.9"W, USA — Yesterday and Last 2 Weeks

Currently: 69 °F. Passing clouds. (Weather station: San Francisco International Airport, USA). See more current weather

Past Weather in 37°53'55.7"N, 122°32'13.9"W — Graph

°F

37°53'55.7"N, 122°32'13.9"W Temperature Yesterday

Maximum temperature yesterday: 73 °F (at 1:56 pm)
Minimum temperature yesterday: 60 °F (at 10:56 pm)
Average temperature yesterday: 66 °F

High & Low Weather Summary for the Past Weeks

 TemperatureHumidityPressure
High78 °F (Jun 12, 12:56 pm)86% (Jun 2, 2:17 am)30.27 "Hg (Jun 2, 2:17 am)
Low53 °F (Jun 2, 2:17 am)35% (Jun 11, 11:56 am)29.80 "Hg (Jun 6, 5:56 pm)
Average62 °F66%29.98 "Hg
* Reported May 31 9:56 am — Jun 15 9:56 am, 37°53'55.7"N, 122°32'13.9"W. Weather by CustomWeather, © 2021

Note: Actual official high and low records may vary slightly from our data, if they occured in-between our weather recording intervals... More about our weather records

37°53'55.7"N, 122°32'13.9"W Weather History for the Previous 24 Hours

Scroll right to see more
 ConditionsComfort  
Time TempWeatherWind HumidityBarometerVisibility
9:56 am
Tue, Jun 15
66 °FPassing clouds.13 mph59%30.14 "Hg10 mi
8:56 am63 °FPassing clouds.17 mph68%30.14 "Hg10 mi
7:56 am61 °FPassing clouds.18 mph72%30.13 "Hg10 mi
6:56 am59 °FPassing clouds.17 mph78%30.13 "Hg10 mi
5:56 am57 °FScattered clouds.18 mph81%30.11 "Hg10 mi
4:56 am57 °FPassing clouds.20 mph81%30.11 "Hg10 mi
4:20 am57 °FPassing clouds.23 mph81%30.10 "Hg10 mi
3:56 am57 °FPassing clouds.21 mph83%30.10 "Hg10 mi
3:28 am57 °FPassing clouds.22 mph83%30.10 "Hg10 mi
2:56 am58 °FPassing clouds.21 mph81%30.09 "Hg10 mi
1:56 am60 °FPassing clouds.16 mph78%30.09 "Hg10 mi
1:27 am60 °FPassing clouds.17 mph78%30.09 "Hg10 mi
12:56 am60 °FPassing clouds.14 mph78%30.09 "Hg10 mi
12:12 am60 °FPassing clouds.14 mph78%30.09 "Hg10 mi
11:56 pm
Mon, Jun 14
60 °FPassing clouds.10 mph78%30.09 "Hg10 mi
11:30 pm60 °FPartly cloudy.10 mph78%30.09 "Hg10 mi
10:56 pm60 °FPassing clouds.10 mph80%30.09 "Hg10 mi
9:56 pm61 °FPassing clouds.17 mph78%30.07 "Hg10 mi
8:56 pm61 °FPassing clouds.14 mph78%30.06 "Hg10 mi
7:56 pm63 °FScattered clouds.20 mph73%30.04 "Hg10 mi
6:56 pm65 °FPassing clouds.22 mph68%30.04 "Hg10 mi
5:56 pm68 °FPassing clouds.26 mph57%30.05 "Hg10 mi
4:56 pm71 °FPassing clouds.26 mph51%30.04 "Hg10 mi
3:56 pm71 °FPassing clouds.30 mph51%30.06 "Hg10 mi
2:56 pm72 °FPassing clouds.23 mph49%30.06 "Hg10 mi
1:56 pm73 °FPassing clouds.20 mph51%30.06 "Hg10 mi
12:56 pm71 °FPassing clouds.16 mph55%30.06 "Hg10 mi
11:56 am70 °FScattered clouds.13 mph61%30.06 "Hg10 mi
Weather by CustomWeather, © 2021

See weather overview